createdAt,value
2018-12-12T00:00:24.632Z,97280.70
2018-12-12T00:02:52.335Z,97274.02
2018-12-12T00:05:20.040Z,97276.64
2018-12-12T00:07:48.800Z,97278.97
2018-12-12T00:10:19.681Z,97272.72
2018-12-12T00:12:48.385Z,97268.95
2018-12-12T00:15:17.508Z,97267.62
2018-12-12T00:17:45.332Z,97265.84
2018-12-12T00:20:12.897Z,97263.17
2018-12-12T00:22:40.570Z,97257.57
2018-12-12T00:25:08.161Z,97260.34
2018-12-12T00:27:35.787Z,97256.77
2018-12-12T00:30:03.604Z,97255.21
2018-12-12T00:32:31.181Z,97255.30
2018-12-12T00:34:58.874Z,97245.55
2018-12-12T00:37:27.532Z,97246.11
2018-12-12T00:39:56.443Z,97246.22
2018-12-12T00:42:24.454Z,97249.84
2018-12-12T00:44:52.158Z,97247.91
2018-12-12T00:47:19.737Z,97253.61
2018-12-12T00:49:47.313Z,97251.88
2018-12-12T00:52:14.936Z,97249.87
2018-12-12T00:54:42.828Z,97254.27
2018-12-12T00:57:10.426Z,97251.17
2018-12-12T00:59:37.993Z,97253.30
2018-12-12T01:02:05.592Z,97253.65
2018-12-12T01:04:33.197Z,97249.87
2018-12-12T01:07:01.904Z,97257.27
2018-12-12T01:09:29.490Z,97254.95
2018-12-12T01:12:02.918Z,97249.37
2018-12-12T01:14:30.570Z,97253.68
2018-12-12T01:16:58.208Z,97262.16
2018-12-12T01:19:25.867Z,97260.61
2018-12-12T01:21:54.416Z,97260.31
2018-12-12T01:24:23.471Z,97263.97
2018-12-12T01:26:51.515Z,97269.41
2018-12-12T01:29:19.085Z,97268.44
2018-12-12T01:31:46.655Z,97266.30
2018-12-12T01:34:14.238Z,97272.83
2018-12-12T01:36:41.811Z,97278.23
2018-12-12T01:39:09.407Z,97280.09
2018-12-12T01:41:36.987Z,97282.09
2018-12-12T01:44:04.645Z,97282.35
2018-12-12T01:46:32.220Z,97275.92
2018-12-12T01:48:59.856Z,97273.45
2018-12-12T01:51:27.539Z,97275.39
2018-12-12T01:53:55.183Z,97277.48
2018-12-12T01:56:22.940Z,97283.33
2018-12-12T01:58:50.605Z,97272.52
2018-12-12T02:01:18.173Z,97273.84
2018-12-12T02:03:45.791Z,97279.23
2018-12-12T02:06:13.426Z,97272.01
2018-12-12T02:08:42.725Z,97271.83
2018-12-12T02:11:11.317Z,97271.71
2018-12-12T02:13:39.519Z,97272.77
2018-12-12T02:16:07.923Z,97272.04
2018-12-12T02:18:37.013Z,97269.09
2018-12-12T02:21:04.598Z,97267.44
2018-12-12T02:23:32.237Z,97264.05
2018-12-12T02:25:59.926Z,97275.13
2018-12-12T02:28:27.511Z,97265.32
2018-12-12T02:30:55.102Z,97268.83
2018-12-12T02:33:22.699Z,97267.83
2018-12-12T02:35:50.279Z,97260.48
2018-12-12T02:38:17.847Z,97264.58
2018-12-12T02:40:45.459Z,97263.99
2018-12-12T02:43:13.044Z,97261.42
2018-12-12T02:45:40.612Z,97260.84
2018-12-12T02:48:08.192Z,97263.37
2018-12-12T02:50:37.132Z,97264.43
2018-12-12T02:53:05.125Z,97264.05
2018-12-12T02:55:32.717Z,97264.84
2018-12-12T02:58:00.324Z,97263.25
2018-12-12T03:00:27.904Z,97257.30
2018-12-12T03:02:55.515Z,97256.53
2018-12-12T03:05:23.108Z,97249.64
2018-12-12T03:07:50.695Z,97253.09
2018-12-12T03:10:18.821Z,97259.48
2018-12-12T03:12:47.585Z,97254.41
2018-12-12T03:15:16.381Z,97258.48
2018-12-12T03:17:44.299Z,97255.13
2018-12-12T03:20:11.981Z,97252.20
2018-12-12T03:22:39.618Z,97255.09
2018-12-12T03:25:07.286Z,97256.69
2018-12-12T03:27:34.862Z,97256.27
2018-12-12T03:30:02.641Z,97257.48
2018-12-12T03:32:30.455Z,97256.98
2018-12-12T03:34:58.033Z,97259.33
2018-12-12T03:37:26.575Z,97261.12
2018-12-12T03:39:54.527Z,97254.61
2018-12-12T03:42:22.128Z,97258.53
2018-12-12T03:44:49.707Z,97251.81
2018-12-12T03:47:17.286Z,97247.84
2018-12-12T03:49:44.930Z,97252.19
2018-12-12T03:52:12.505Z,97247.72
2018-12-12T03:54:40.080Z,97246.28
2018-12-12T03:57:07.663Z,97243.48
2018-12-12T03:59:35.238Z,97241.63
2018-12-12T04:02:02.825Z,97238.77
2018-12-12T04:04:30.471Z,97236.83
2018-12-12T04:06:58.077Z,97238.17
2018-12-12T04:09:25.668Z,97238.77
2018-12-12T04:11:53.270Z,97246.75
2018-12-12T04:14:20.900Z,97248.81
2018-12-12T04:16:48.486Z,97243.33
2018-12-12T04:19:16.232Z,97247.59
2018-12-12T04:21:43.900Z,97239.36
2018-12-12T04:24:11.481Z,97243.81
2018-12-12T04:26:39.054Z,97245.81
2018-12-12T04:29:06.810Z,97248.34
2018-12-12T04:31:35.826Z,97244.28
2018-12-12T04:34:03.564Z,97250.64
2018-12-12T04:36:31.140Z,97245.81
2018-12-12T04:38:58.767Z,97243.10
2018-12-12T04:41:26.530Z,97247.58
2018-12-12T04:43:54.113Z,97247.38
2018-12-12T04:46:21.752Z,97241.00
2018-12-12T04:48:49.406Z,97250.28
2018-12-12T04:51:16.991Z,97250.25
2018-12-12T04:53:44.574Z,97254.43
2018-12-12T04:56:12.189Z,97251.78
2018-12-12T04:58:39.817Z,97253.88
2018-12-12T05:01:08.543Z,97260.56
2018-12-12T05:03:36.324Z,97258.61
2018-12-12T05:06:03.963Z,97257.80
2018-12-12T05:08:31.547Z,97258.89
2018-12-12T05:10:59.202Z,97260.42
2018-12-12T05:13:26.783Z,97264.19
2018-12-12T05:15:54.400Z,97259.12
2018-12-12T05:18:22.135Z,97259.33
2018-12-12T05:20:49.719Z,97260.30
2018-12-12T05:23:17.302Z,97261.69
2018-12-12T05:25:46.344Z,97258.27
2018-12-12T05:28:14.017Z,97262.83
2018-12-12T05:30:41.601Z,97261.27
2018-12-12T05:33:09.181Z,97258.73
2018-12-12T05:35:36.765Z,97263.16
2018-12-12T05:38:04.352Z,97265.34
2018-12-12T05:40:32.253Z,97266.20
2018-12-12T05:42:59.846Z,97262.39
2018-12-12T05:45:27.737Z,97268.55
2018-12-12T05:47:55.308Z,97265.48
2018-12-12T05:50:22.899Z,97267.17
2018-12-12T05:52:50.472Z,97260.04
2018-12-12T05:55:18.054Z,97260.84
2018-12-12T05:57:45.653Z,97256.87
2018-12-12T06:00:14.592Z,97255.65
2018-12-12T06:02:42.173Z,97259.03
2018-12-12T06:05:09.903Z,97253.52
2018-12-12T06:07:38.666Z,97259.55
2018-12-12T06:10:08.101Z,97263.30
2018-12-12T06:12:36.821Z,97258.95
2018-12-12T06:15:05.679Z,97265.08
2018-12-12T06:17:33.265Z,97264.45
2018-12-12T06:20:01.190Z,97265.97
2018-12-12T06:22:29.494Z,97268.91
2018-12-12T06:24:57.064Z,97270.18
2018-12-12T06:27:24.648Z,97270.18
2018-12-12T06:29:52.255Z,97271.24
2018-12-12T06:32:20.190Z,97267.66
2018-12-12T06:34:48.793Z,97272.30
2018-12-12T06:37:18.110Z,97271.54
2018-12-12T06:39:46.080Z,97273.19
2018-12-12T06:42:13.719Z,97271.80
2018-12-12T06:44:41.298Z,97273.90
2018-12-12T06:47:08.884Z,97275.00
2018-12-12T06:49:36.465Z,97263.98
2018-12-12T06:52:04.159Z,97263.09
2018-12-12T06:54:31.819Z,97259.69
2018-12-12T06:56:59.389Z,97258.80
2018-12-12T06:59:26.976Z,97263.73
2018-12-12T07:01:54.553Z,97262.17
2018-12-12T07:04:22.128Z,97268.50
2018-12-12T07:06:49.704Z,97274.53
2018-12-12T07:09:17.382Z,97272.21
2018-12-12T07:11:45.372Z,97277.36
2018-12-12T07:14:15.188Z,97272.77
2018-12-12T07:16:43.475Z,97275.96
2018-12-12T07:19:11.065Z,97277.44
2018-12-12T07:21:38.634Z,97282.59
2018-12-12T07:24:06.216Z,97274.14
2018-12-12T07:26:33.800Z,97279.13
2018-12-12T07:29:01.373Z,97278.06
2018-12-12T07:31:28.960Z,97279.63
2018-12-12T07:34:00.952Z,97274.09
2018-12-12T07:36:26.286Z,97277.18
2018-12-12T07:38:54.103Z,97275.91
2018-12-12T07:41:22.670Z,97283.80
2018-12-12T07:43:51.730Z,97276.84
2018-12-12T07:46:20.832Z,97285.70
2018-12-12T07:48:48.416Z,97285.20
2018-12-12T07:51:15.987Z,97280.34
2018-12-12T07:53:43.552Z,97282.23
2018-12-12T07:56:11.258Z,97282.56
2018-12-12T07:58:38.832Z,97287.25
2018-12-12T08:01:06.413Z,97288.55
2018-12-12T08:03:34.027Z,97285.89
2018-12-12T08:06:01.704Z,97287.33
2018-12-12T08:08:29.405Z,97287.59
2018-12-12T08:10:57.693Z,97281.84
2018-12-12T08:13:26.798Z,97281.47
2018-12-12T08:15:56.291Z,97286.77
2018-12-12T08:18:25.776Z,97285.27
2018-12-12T08:20:53.370Z,97288.19
2018-12-12T08:23:21.998Z,97286.77
2018-12-12T08:25:51.700Z,97287.59
2018-12-12T08:28:20.264Z,97289.98
2018-12-12T08:30:47.947Z,97292.38
2018-12-12T08:33:15.804Z,97296.44
2018-12-12T08:35:44.317Z,97286.71
2018-12-12T08:38:13.596Z,97294.64
2018-12-12T08:40:41.639Z,97295.82
2018-12-12T08:43:09.207Z,97290.34
2018-12-12T08:45:36.787Z,97292.94
2018-12-12T08:48:04.370Z,97295.00
2018-12-12T08:50:31.936Z,97293.41
2018-12-12T08:52:59.513Z,97294.47
2018-12-12T08:55:27.103Z,97293.73
2018-12-12T08:57:54.770Z,97297.33
2018-12-12T09:00:22.356Z,97295.70
2018-12-12T09:02:49.936Z,97294.05
2018-12-12T09:05:17.516Z,97298.69
2018-12-12T09:07:45.087Z,97299.00
2018-12-12T09:10:12.670Z,97305.14
2018-12-12T09:12:40.568Z,97308.30
2018-12-12T09:15:10.006Z,97302.13
2018-12-12T09:17:39.170Z,97316.02
2018-12-12T09:20:06.888Z,97313.81
2018-12-12T09:22:34.487Z,97314.39
2018-12-12T09:25:02.112Z,97313.78
2018-12-12T09:27:31.617Z,97313.48
2018-12-12T09:30:00.007Z,97311.39
2018-12-12T09:32:27.585Z,97306.08
2018-12-12T09:34:55.163Z,97314.81
2018-12-12T09:37:22.773Z,97307.19
2018-12-12T09:39:50.353Z,97307.49
2018-12-12T09:42:17.934Z,97306.78
2018-12-12T09:44:45.513Z,97306.80
2018-12-12T09:47:13.092Z,97299.03
2018-12-12T09:49:40.672Z,97299.23
2018-12-12T09:52:08.339Z,97296.56
2018-12-12T09:54:36.025Z,97292.84
2018-12-12T09:57:03.605Z,97298.00
2018-12-12T09:59:31.216Z,97296.28
2018-12-12T10:01:58.797Z,97291.88
2018-12-12T10:04:26.459Z,97294.55
2018-12-12T10:06:54.040Z,97290.07
2018-12-12T10:09:21.614Z,97290.16
2018-12-12T10:11:50.094Z,97292.16
2018-12-12T10:14:20.375Z,97290.53
2018-12-12T10:16:48.028Z,97291.80
2018-12-12T10:19:15.605Z,97289.77
2018-12-12T10:21:43.407Z,97289.17
2018-12-12T10:24:11.026Z,97288.56
2018-12-12T10:26:38.718Z,97286.36
2018-12-12T10:29:06.308Z,97289.26
2018-12-12T10:31:34.218Z,97289.61
2018-12-12T10:34:01.834Z,97285.84
2018-12-12T10:36:29.411Z,97272.83
2018-12-12T10:38:57.073Z,97276.26
2018-12-12T10:41:24.649Z,97276.36
2018-12-12T10:43:52.232Z,97277.70
2018-12-12T10:46:19.853Z,97266.11
2018-12-12T10:48:47.435Z,97268.83
2018-12-12T10:51:15.073Z,97268.25
2018-12-12T10:53:42.731Z,97264.55
2018-12-12T10:56:10.417Z,97264.37
2018-12-12T10:58:38.343Z,97259.48
2018-12-12T11:01:11.876Z,97261.44
2018-12-12T11:03:44.304Z,97255.27
2018-12-12T11:06:11.249Z,97252.08
2018-12-12T11:08:38.833Z,97256.64
2018-12-12T11:11:06.454Z,97249.61
2018-12-12T11:13:34.032Z,97245.12
2018-12-12T11:16:01.604Z,97245.73
2018-12-12T11:18:29.187Z,97240.04
2018-12-12T11:20:56.842Z,97247.45
2018-12-12T11:23:24.416Z,97249.10
2018-12-12T11:25:52.057Z,97245.16
2018-12-12T11:28:19.634Z,97239.61
2018-12-12T11:30:47.241Z,97239.78
2018-12-12T11:33:14.808Z,97232.85
2018-12-12T11:35:42.378Z,97232.52
2018-12-12T11:38:10.067Z,97228.59
2018-12-12T11:40:37.624Z,97218.73
2018-12-12T11:43:05.275Z,97217.51
2018-12-12T11:45:32.944Z,97212.09
2018-12-12T11:48:00.704Z,97208.88
2018-12-12T11:50:28.267Z,97214.99
2018-12-12T11:52:55.844Z,97210.84
2018-12-12T11:55:23.422Z,97207.14
2018-12-12T11:57:51.061Z,97212.19
2018-12-12T12:00:18.642Z,97205.69
2018-12-12T12:02:46.214Z,97201.20
2018-12-12T12:05:13.793Z,97209.17
2018-12-12T12:07:41.404Z,97203.59
2018-12-12T12:10:09.130Z,97199.77
2018-12-12T12:12:36.692Z,97195.50
2018-12-12T12:15:05.704Z,97195.59
2018-12-12T12:17:33.273Z,97190.09
2018-12-12T12:20:00.855Z,97186.33
2018-12-12T12:22:28.476Z,97182.94
2018-12-12T12:24:56.057Z,97176.34
2018-12-12T12:27:23.692Z,97174.46
2018-12-12T12:29:51.261Z,97174.41
2018-12-12T12:32:18.989Z,97174.64
2018-12-12T12:34:46.612Z,97175.20
2018-12-12T12:37:14.236Z,97167.94
2018-12-12T12:39:41.801Z,97167.88
2018-12-12T12:42:09.458Z,97169.78
2018-12-12T12:44:37.023Z,97167.42
2018-12-12T12:47:04.678Z,97158.63
2018-12-12T12:49:32.364Z,97159.98
2018-12-12T12:51:59.933Z,97156.53
2018-12-12T12:54:27.497Z,97154.20
2018-12-12T12:56:55.225Z,97155.20
2018-12-12T12:59:22.786Z,97156.97
2018-12-12T13:01:50.357Z,97154.16
2018-12-12T13:04:17.925Z,97149.83
2018-12-12T13:06:45.583Z,97149.34
2018-12-12T13:09:13.244Z,97147.60
2018-12-12T13:11:40.815Z,97150.52
2018-12-12T13:14:08.550Z,97153.55
2018-12-12T13:16:36.203Z,97151.76
2018-12-12T13:19:03.874Z,97149.49
2018-12-12T13:21:31.437Z,97149.58
2018-12-12T13:23:59.026Z,97149.08
2018-12-12T13:26:26.592Z,97147.13
2018-12-12T13:28:54.164Z,97142.28
2018-12-12T13:31:21.751Z,97141.76
2018-12-12T13:33:49.308Z,97142.52
2018-12-12T13:36:16.868Z,97143.75
2018-12-12T13:38:44.445Z,97144.36
2018-12-12T13:41:12.021Z,97140.53
2018-12-12T13:43:39.668Z,97141.28
2018-12-12T13:46:07.238Z,97135.95
2018-12-12T13:48:34.805Z,97138.41
2018-12-12T13:51:02.388Z,97135.45
2018-12-12T13:53:29.969Z,97137.80
2018-12-12T13:55:57.531Z,97142.87
2018-12-12T13:58:25.109Z,97145.41
2018-12-12T14:00:52.673Z,97138.67
2018-12-12T14:03:20.247Z,97139.59
2018-12-12T14:05:47.814Z,97137.99
2018-12-12T14:08:15.466Z,97142.87
2018-12-12T14:10:43.116Z,97142.58
2018-12-12T14:13:10.678Z,97140.94
2018-12-12T14:15:38.274Z,97137.06
2018-12-12T14:18:05.848Z,97140.08
2018-12-12T14:20:33.455Z,97138.02
2018-12-12T14:23:01.042Z,97136.64
2018-12-12T14:25:28.640Z,97138.80
2018-12-12T14:27:56.221Z,97141.82
2018-12-12T14:30:23.795Z,97140.36
2018-12-12T14:32:51.373Z,97138.33
2018-12-12T14:35:18.940Z,97129.43
2018-12-12T14:37:47.819Z,97128.06
2018-12-12T14:40:15.468Z,97134.89
2018-12-12T14:42:45.887Z,97130.73
2018-12-12T14:45:13.557Z,97133.36
2018-12-12T14:47:41.212Z,97135.69
2018-12-12T14:50:08.786Z,97134.42
2018-12-12T14:52:36.436Z,97124.54
2018-12-12T14:55:04.236Z,97137.15
2018-12-12T14:57:31.807Z,97133.53
2018-12-12T14:59:59.593Z,97131.59
2018-12-12T15:02:27.396Z,97127.80
2018-12-12T15:04:55.054Z,97130.20
2018-12-12T15:07:22.716Z,97128.57
2018-12-12T15:09:51.376Z,97129.08
2018-12-12T15:12:19.308Z,97126.24
2018-12-12T15:14:46.866Z,97126.27
2018-12-12T15:17:14.443Z,97121.89
2018-12-12T15:19:42.013Z,97121.78
2018-12-12T15:22:09.712Z,97121.21
2018-12-12T15:24:37.379Z,97118.57
2018-12-12T15:27:04.962Z,97115.27
2018-12-12T15:29:33.756Z,97118.69
2018-12-12T15:32:02.728Z,97121.70
2018-12-12T15:34:31.984Z,97120.73
2018-12-12T15:37:01.762Z,97117.45
2018-12-12T15:39:29.490Z,97120.70
2018-12-12T15:41:57.056Z,97116.75
2018-12-12T15:44:24.637Z,97118.73
2018-12-12T15:46:52.268Z,97121.14
2018-12-12T15:49:19.858Z,97125.31
2018-12-12T15:51:47.433Z,97119.66
2018-12-12T15:54:15.047Z,97117.26
2018-12-12T15:56:42.646Z,97118.30
2018-12-12T15:59:11.683Z,97116.19
2018-12-12T16:01:40.512Z,97116.34
2018-12-12T16:04:08.179Z,97117.83
2018-12-12T16:06:35.748Z,97120.23
2018-12-12T16:09:05.242Z,97117.71
2018-12-12T16:11:32.823Z,97114.59
2018-12-12T16:14:00.464Z,97108.73
2018-12-12T16:16:28.125Z,97115.08
2018-12-12T16:18:55.765Z,97114.69
2018-12-12T16:21:23.349Z,97115.69
2018-12-12T16:23:50.920Z,97117.28
2018-12-12T16:26:18.568Z,97115.80
2018-12-12T16:28:46.208Z,97118.55
2018-12-12T16:31:13.894Z,97123.17
2018-12-12T16:33:41.456Z,97123.25
2018-12-12T16:36:09.089Z,97122.56
2018-12-12T16:38:36.672Z,97121.03
2018-12-12T16:41:04.543Z,97119.75
2018-12-12T16:43:32.258Z,97124.42
2018-12-12T16:45:59.945Z,97122.86
2018-12-12T16:48:27.605Z,97130.29
2018-12-12T16:50:55.170Z,97123.74
2018-12-12T16:53:23.148Z,97125.20
2018-12-12T16:55:53.647Z,97121.51
2018-12-12T16:58:23.613Z,97120.92
2018-12-12T17:00:52.659Z,97117.81
2018-12-12T17:03:21.832Z,97119.45
2018-12-12T17:05:49.621Z,97110.96
2018-12-12T17:08:17.182Z,97110.96
2018-12-12T17:10:48.114Z,97111.48
2018-12-12T17:13:16.031Z,97111.66
2018-12-12T17:15:43.592Z,97111.38
2018-12-12T17:18:11.218Z,97106.10
2018-12-12T17:20:38.809Z,97101.52
2018-12-12T17:23:06.438Z,97104.53
2018-12-12T17:25:34.139Z,97097.42
2018-12-12T17:28:01.740Z,97103.49
2018-12-12T17:30:30.132Z,97101.24
2018-12-12T17:32:57.807Z,97097.53
2018-12-12T17:35:25.918Z,97095.97
2018-12-12T17:37:54.704Z,97092.64
2018-12-12T17:40:22.270Z,97096.16
2018-12-12T17:42:51.116Z,97096.66
2018-12-12T17:45:18.814Z,97099.78
2018-12-12T17:47:46.569Z,97097.43
2018-12-12T17:50:14.362Z,97099.49
2018-12-12T17:52:41.993Z,97094.12
2018-12-12T17:55:09.569Z,97089.82
2018-12-12T17:57:37.219Z,97090.80
2018-12-12T18:00:05.404Z,97088.27
2018-12-12T18:02:32.968Z,97087.78
2018-12-12T18:05:00.540Z,97088.64
2018-12-12T18:07:28.269Z,97089.15
2018-12-12T18:09:55.831Z,97087.27
2018-12-12T18:12:23.464Z,97083.09
2018-12-12T18:14:51.150Z,97091.19
2018-12-12T18:17:18.712Z,97091.19
2018-12-12T18:19:46.371Z,97094.89
2018-12-12T18:22:13.972Z,97099.97
2018-12-12T18:24:41.699Z,97097.72
2018-12-12T18:27:10.480Z,97099.09
2018-12-12T18:29:38.325Z,97098.69
2018-12-12T18:32:05.886Z,97096.37
2018-12-12T18:34:33.986Z,97093.05
2018-12-12T18:37:02.217Z,97089.13
2018-12-12T18:39:30.660Z,97080.86
2018-12-12T18:41:58.271Z,97079.38
2018-12-12T18:44:26.079Z,97082.78
2018-12-12T18:46:54.598Z,97078.50
2018-12-12T18:49:24.332Z,97082.31
2018-12-12T18:51:52.758Z,97081.91
2018-12-12T18:54:20.370Z,97081.34
2018-12-12T18:56:47.932Z,97082.21
2018-12-12T18:59:15.492Z,97085.43
2018-12-12T19:01:43.052Z,97087.20
2018-12-12T19:04:10.626Z,97090.61
2018-12-12T19:06:38.201Z,97087.78
2018-12-12T19:09:08.144Z,97084.56
2018-12-12T19:11:37.570Z,97084.28
2018-12-12T19:14:05.143Z,97086.12
2018-12-12T19:16:32.700Z,97086.98
2018-12-12T19:19:00.287Z,97084.27
2018-12-12T19:21:27.856Z,97080.46
2018-12-12T19:23:56.264Z,97092.06
2018-12-12T19:26:25.783Z,97086.89
2018-12-12T19:28:53.352Z,97095.00
2018-12-12T19:31:20.919Z,97092.65
2018-12-12T19:33:48.489Z,97091.30
2018-12-12T19:36:16.053Z,97087.11
2018-12-12T19:38:43.708Z,97083.30
2018-12-12T19:41:11.388Z,97087.17
2018-12-12T19:43:38.961Z,97085.14
2018-12-12T19:46:06.528Z,97083.97
2018-12-12T19:48:34.095Z,97080.08
2018-12-12T19:51:01.671Z,97078.30
2018-12-12T19:53:29.236Z,97075.77
2018-12-12T19:55:56.787Z,97072.36
2018-12-12T19:58:25.515Z,97076.95
2018-12-12T20:00:53.383Z,97071.59
2018-12-12T20:03:20.952Z,97076.67
2018-12-12T20:05:48.518Z,97069.42
2018-12-12T20:08:16.204Z,97072.55
2018-12-12T20:10:43.757Z,97076.66
2018-12-12T20:13:11.384Z,97068.95
2018-12-12T20:15:45.489Z,97068.55
2018-12-12T20:18:13.051Z,97072.73
2018-12-12T20:20:40.642Z,97073.71
2018-12-12T20:23:08.260Z,97069.42
2018-12-12T20:25:35.862Z,97066.91
2018-12-12T20:28:03.454Z,97068.08
2018-12-12T20:30:35.278Z,97068.77
2018-12-12T20:33:01.609Z,97059.95
2018-12-12T20:35:31.041Z,97060.45
2018-12-12T20:37:59.370Z,97061.03
2018-12-12T20:40:26.945Z,97056.94
2018-12-12T20:42:54.508Z,97052.74
2018-12-12T20:45:22.084Z,97055.67
2018-12-12T20:47:49.662Z,97053.63
2018-12-12T20:50:17.267Z,97054.72
2018-12-12T20:52:44.828Z,97050.50
2018-12-12T20:55:12.515Z,97047.10
2018-12-12T20:57:40.081Z,97051.77
2018-12-12T21:00:08.913Z,97044.67
2018-12-12T21:02:36.571Z,97036.84
2018-12-12T21:05:04.466Z,97042.32
2018-12-12T21:07:32.063Z,97040.19
2018-12-12T21:09:59.787Z,97038.02
2018-12-12T21:12:27.357Z,97037.05
2018-12-12T21:14:54.922Z,97035.09
2018-12-12T21:17:22.772Z,97037.45
2018-12-12T21:19:54.093Z,97033.14
2018-12-12T21:22:21.915Z,97024.38
2018-12-12T21:24:49.548Z,97021.84
2018-12-12T21:27:17.251Z,97027.66
2018-12-12T21:29:44.814Z,97017.24
2018-12-12T21:32:12.374Z,97020.86
2018-12-12T21:34:39.944Z,97014.34
2018-12-12T21:37:07.573Z,97018.14
2018-12-12T21:39:35.826Z,97020.85
2018-12-12T21:42:05.406Z,97015.56
2018-12-12T21:44:33.820Z,97013.33
2018-12-12T21:47:01.925Z,97010.71
2018-12-12T21:49:29.617Z,97011.34
2018-12-12T21:51:57.176Z,97006.39
2018-12-12T21:54:24.752Z,97012.20
2018-12-12T21:56:52.333Z,97009.59
2018-12-12T21:59:19.979Z,97004.79
2018-12-12T22:01:47.648Z,97001.92
2018-12-12T22:04:15.236Z,97002.73
2018-12-12T22:06:42.802Z,97007.20
2018-12-12T22:09:10.552Z,97004.84
2018-12-12T22:11:38.792Z,97006.67
2018-12-12T22:14:08.477Z,97007.63
2018-12-12T22:16:37.022Z,97003.13
2018-12-12T22:19:04.668Z,97003.22
2018-12-12T22:21:32.311Z,97004.48
2018-12-12T22:23:59.882Z,97006.58
2018-12-12T22:26:27.763Z,97000.38
2018-12-12T22:28:55.541Z,97004.73
2018-12-12T22:31:23.188Z,96995.94
2018-12-12T22:33:50.762Z,96999.11
2018-12-12T22:36:18.517Z,96995.64
2018-12-12T22:38:46.159Z,96996.23
2018-12-12T22:41:13.845Z,96991.94
2018-12-12T22:43:41.502Z,96992.97
2018-12-12T22:46:09.163Z,96986.64
2018-12-12T22:48:36.823Z,96991.80
2018-12-12T22:51:04.461Z,96986.53
2018-12-12T22:53:32.068Z,96985.67
2018-12-12T22:55:59.654Z,96990.27
2018-12-12T22:58:27.250Z,96981.77
2018-12-12T23:00:59.943Z,96974.47
2018-12-12T23:03:27.576Z,96972.20
2018-12-12T23:05:55.249Z,96974.59
2018-12-12T23:08:22.831Z,96981.23
2018-12-12T23:10:50.469Z,96980.17
2018-12-12T23:13:18.029Z,96971.66
2018-12-12T23:15:45.612Z,96970.03
2018-12-12T23:18:13.266Z,96973.34
2018-12-12T23:20:40.840Z,96967.60
2018-12-12T23:23:08.419Z,96970.92
2018-12-12T23:25:37.672Z,96969.37
2018-12-12T23:28:07.269Z,96962.77
2018-12-12T23:30:34.865Z,96961.89
2018-12-12T23:33:02.503Z,96965.07
2018-12-12T23:35:30.088Z,96967.53
2018-12-12T23:37:57.705Z,96965.39
2018-12-12T23:40:25.362Z,96958.79
2018-12-12T23:42:52.961Z,96959.06
2018-12-12T23:45:20.549Z,96956.71
2018-12-12T23:47:48.125Z,96953.39
2018-12-12T23:50:15.702Z,96952.93
2018-12-12T23:52:43.273Z,96951.77
2018-12-12T23:55:11.243Z,96953.13
2018-12-12T23:57:40.418Z,96945.74
